Time;durP1;ratioP1;P1;durP2;ratioP2;P2;SDS_P1;SDS_P2;PMS_P1;PMS_P2;Temp;Humidity;BMP_temperature;BMP_pressure;BME280_temperature;BME280_humidity;BME280_pressure;Samples;Min_cycle;Max_cycle;Signal;HPM_P1;HPM_P2
2021/09/25 00:02:23;;;;;;;0.00;0.00;;;11.40;94.10;;;;;;5037015;28;20037;-78
2021/09/25 00:04:49;;;;;;;0.00;0.00;;;11.40;94.00;;;;;;5036473;28;20060;-77
2021/09/25 00:07:14;;;;;;;0.00;0.00;;;11.40;93.90;;;;;;5036434;28;20053;-78
2021/09/25 00:09:40;;;;;;;0.00;0.00;;;11.50;93.80;;;;;;5052014;28;20100;-77
2021/09/25 00:12:11;;;;;;;0.00;0.00;;;11.40;93.80;;;;;;5036779;28;20021;-76
2021/09/25 00:14:38;;;;;;;0.00;0.00;;;11.50;93.80;;;;;;5051874;28;20121;-76
2021/09/25 00:17:08;;;;;;;0.00;0.00;;;11.50;93.80;;;;;;5036594;28;20055;-77
2021/09/25 00:19:36;;;;;;;0.00;0.00;;;11.50;93.80;;;;;;5035048;28;20397;-77
2021/09/25 00:22:03;;;;;;;0.00;0.00;;;11.50;93.70;;;;;;5037452;28;20029;-77
2021/09/25 00:24:28;;;;;;;0.00;0.00;;;11.50;93.60;;;;;;5037371;28;20080;-77
2021/09/25 00:26:54;;;;;;;0.00;0.00;;;11.60;93.60;;;;;;5056002;28;20075;-77
2021/09/25 00:29:20;;;;;;;0.00;0.00;;;11.50;93.50;;;;;;5056441;28;20457;-79
2021/09/25 00:31:46;;;;;;;0.00;0.00;;;11.50;93.50;;;;;;5055002;28;20036;-77
2021/09/25 00:34:12;;;;;;;0.00;0.00;;;11.60;93.50;;;;;;5056862;28;20467;-77
2021/09/25 00:36:38;;;;;;;0.00;0.00;;;11.60;93.50;;;;;;5056348;28;20048;-77
2021/09/25 00:39:04;;;;;;;0.00;0.00;;;11.60;93.30;;;;;;5055960;28;20037;-77
2021/09/25 00:41:30;;;;;;;0.00;0.00;;;11.60;93.30;;;;;;5055721;28;20029;-77
2021/09/25 00:43:56;;;;;;;0.00;0.00;;;11.60;93.20;;;;;;5055858;28;20107;-76
2021/09/25 00:46:22;;;;;;;0.03;0.00;;;11.60;93.10;;;;;;5056061;28;20083;-78
2021/09/25 00:48:49;;;;;;;0.00;0.00;;;11.60;93.20;;;;;;5055773;28;20029;-77
2021/09/25 00:51:15;;;;;;;0.00;0.00;;;11.60;93.20;;;;;;5055911;28;20026;-77
2021/09/25 00:53:41;;;;;;;0.00;0.00;;;11.60;93.20;;;;;;5055447;28;20402;-76
2021/09/25 00:56:08;;;;;;;0.00;0.00;;;11.50;93.20;;;;;;5055976;28;20029;-77
2021/09/25 00:58:36;;;;;;;0.00;0.00;;;11.50;93.10;;;;;;5055618;28;20103;-77
2021/09/25 01:01:03;;;;;;;0.00;0.00;;;11.60;93.10;;;;;;5055637;28;20377;-76
2021/09/25 01:03:28;;;;;;;0.00;0.00;;;11.60;93.10;;;;;;5053433;28;20067;-77
2021/09/25 01:05:54;;;;;;;0.00;0.00;;;11.60;93.10;;;;;;5055327;28;20060;-77
2021/09/25 01:08:22;;;;;;;0.00;0.00;;;11.60;93.10;;;;;;5055657;28;20424;-77
2021/09/25 01:10:49;;;;;;;0.00;0.00;;;11.50;93.10;;;;;;5055896;28;20029;-76
2021/09/25 01:13:15;;;;;;;0.00;0.00;;;11.50;93.00;;;;;;5056336;28;20036;-77
2021/09/25 01:15:41;;;;;;;0.00;0.00;;;11.50;93.00;;;;;;5055261;28;20032;-76
2021/09/25 01:18:07;;;;;;;0.00;0.00;;;11.50;93.00;;;;;;5055602;28;20507;-76
2021/09/25 01:20:33;;;;;;;0.00;0.00;;;11.50;92.90;;;;;;5054273;28;20032;-76
2021/09/25 01:22:59;;;;;;;0.00;0.00;;;11.50;92.80;;;;;;5055659;28;20025;-76
2021/09/25 01:25:26;;;;;;;0.00;0.00;;;11.40;92.80;;;;;;5053841;28;20424;-77
2021/09/25 01:27:52;;;;;;;0.00;0.00;;;11.40;92.80;;;;;;5055641;28;20099;-75
2021/09/25 01:30:18;;;;;;;0.00;0.00;;;11.40;92.90;;;;;;5055061;28;20535;-76
2021/09/25 01:32:46;;;;;;;0.00;0.00;;;11.40;92.90;;;;;;5053141;28;20025;-76
2021/09/25 01:35:13;;;;;;;0.00;0.00;;;11.40;93.00;;;;;;5035688;28;20033;-76
2021/09/25 01:37:40;;;;;;;0.00;0.00;;;11.40;93.30;;;;;;5035161;28;20022;-78
2021/09/25 01:40:07;;;;;;;0.00;0.00;;;11.40;93.00;;;;;;5035033;28;20381;-79
2021/09/25 01:42:33;;;;;;;0.00;0.00;;;11.40;93.00;;;;;;5034983;28;20084;-77
2021/09/25 01:45:00;;;;;;;0.00;0.00;;;11.40;93.00;;;;;;5035366;28;20053;-76
2021/09/25 01:47:25;;;;;;;0.00;0.00;;;11.40;93.00;;;;;;5035113;28;20441;-77
2021/09/25 01:49:51;;;;;;;0.00;0.00;;;11.40;93.00;;;;;;5035081;28;20056;-76
2021/09/25 01:52:18;;;;;;;0.00;0.00;;;11.40;93.10;;;;;;5034657;28;20025;-76
2021/09/25 01:54:45;;;;;;;0.00;0.00;;;11.40;93.20;;;;;;5034602;28;20025;-77
2021/09/25 01:57:10;;;;;;;0.00;0.00;;;11.40;93.20;;;;;;5034652;28;20044;-76
2021/09/25 01:59:36;;;;;;;0.00;0.00;;;11.40;93.10;;;;;;5049950;28;20021;-76
2021/09/25 02:02:03;;;;;;;0.00;0.00;;;11.40;93.10;;;;;;5034773;28;20029;-76
2021/09/25 02:04:28;;;;;;;0.00;0.00;;;11.50;93.10;;;;;;5034448;28;20389;-77
2021/09/25 02:06:54;;;;;;;0.00;0.00;;;11.50;93.10;;;;;;5034486;28;20037;-77
2021/09/25 02:09:20;;;;;;;0.00;0.00;;;11.50;93.10;;;;;;5034327;28;20032;-76
2021/09/25 02:11:45;;;;;;;0.00;0.00;;;11.50;93.10;;;;;;5034063;28;20087;-77
2021/09/25 02:14:11;;;;;;;0.00;0.00;;;11.50;93.10;;;;;;5034026;28;20024;-76
2021/09/25 02:16:37;;;;;;;0.00;0.00;;;11.50;93.10;;;;;;5033916;28;20034;-76
2021/09/25 02:19:03;;;;;;;0.00;0.00;;;11.60;93.10;;;;;;5034265;28;20044;-76
2021/09/25 02:21:29;;;;;;;0.00;0.00;;;11.60;93.10;;;;;;5034093;28;20033;-76
2021/09/25 02:23:55;;;;;;;0.00;0.00;;;11.60;93.20;;;;;;5034130;28;20052;-76
2021/09/25 02:26:20;;;;;;;0.00;0.00;;;11.60;93.00;;;;;;5034082;28;20030;-77
2021/09/25 02:28:46;;;;;;;0.00;0.00;;;11.60;93.00;;;;;;5032834;28;20030;-77
2021/09/25 02:31:12;;;;;;;0.00;0.00;;;11.60;93.00;;;;;;5034028;28;20021;-77
2021/09/25 02:33:38;;;;;;;0.00;0.00;;;11.60;92.90;;;;;;5032701;28;20040;-78
2021/09/25 02:36:04;;;;;;;0.00;0.00;;;11.60;92.80;;;;;;5034154;28;20040;-75
2021/09/25 02:38:30;;;;;;;0.00;0.00;;;11.70;92.80;;;;;;5033435;28;20068;-76
2021/09/25 02:40:55;;;;;;;0.00;0.00;;;11.70;92.80;;;;;;5032651;28;20099;-76
2021/09/25 02:43:22;;;;;;;0.00;0.00;;;11.60;92.80;;;;;;5032691;28;20490;-76
2021/09/25 02:45:47;;;;;;;0.00;0.00;;;11.70;92.80;;;;;;5033723;28;20139;-76
2021/09/25 02:48:13;;;;;;;0.00;0.00;;;11.70;92.80;;;;;;5033537;28;20100;-76
2021/09/25 02:50:39;;;;;;;0.00;0.00;;;11.70;92.80;;;;;;5033645;28;20107;-77
2021/09/25 02:53:05;;;;;;;0.00;0.00;;;11.70;92.90;;;;;;5033541;28;20033;-76
2021/09/25 02:55:31;;;;;;;0.00;0.00;;;11.70;92.90;;;;;;5033390;28;20136;-77
2021/09/25 02:57:56;;;;;;;0.00;0.00;;;11.70;93.20;;;;;;5033687;28;20052;-76
2021/09/25 03:00:22;;;;;;;0.00;0.00;;;11.80;92.90;;;;;;5048968;28;20516;-76
2021/09/25 03:02:48;;;;;;;0.00;0.00;;;11.80;92.70;;;;;;5033544;28;20025;-76
2021/09/25 03:05:14;;;;;;;0.00;0.00;;;11.80;92.60;;;;;;5032263;28;20087;-76
2021/09/25 03:07:40;;;;;;;0.00;0.00;;;11.80;92.30;;;;;;5032253;28;20409;-76
2021/09/25 03:10:07;;;;;;;0.00;0.00;;;11.80;92.20;;;;;;5033784;28;20532;-76
2021/09/25 03:12:34;;;;;;;0.00;0.00;;;11.80;92.00;;;;;;5033662;28;20417;-77
2021/09/25 03:15:00;;;;;;;0.00;0.00;;;11.80;91.90;;;;;;5033332;28;20025;-76
2021/09/25 03:17:26;;;;;;;0.00;0.00;;;11.80;91.90;;;;;;5033608;28;20108;-76
2021/09/25 03:19:52;;;;;;;0.00;0.00;;;11.80;91.90;;;;;;5032295;28;20119;-76
2021/09/25 03:22:18;;;;;;;0.00;0.00;;;11.80;91.90;;;;;;5033524;28;20091;-76
2021/09/25 03:24:44;;;;;;;0.00;0.00;;;11.70;91.80;;;;;;5032006;28;20046;-76
2021/09/25 03:27:10;;;;;;;0.00;0.00;;;11.70;91.80;;;;;;5036647;28;20069;-76
2021/09/25 03:29:36;;;;;;;0.00;0.00;;;11.70;91.80;;;;;;5037083;28;20037;-77
2021/09/25 03:32:02;;;;;;;0.00;0.00;;;11.80;91.80;;;;;;5036111;28;20137;-76
2021/09/25 03:34:28;;;;;;;0.00;0.00;;;11.80;91.80;;;;;;5036996;28;20030;-77
2021/09/25 03:36:54;;;;;;;0.00;0.00;;;11.80;91.80;;;;;;5037256;28;20041;-77
2021/09/25 03:39:20;;;;;;;0.00;0.00;;;11.80;91.70;;;;;;5036954;28;20421;-76
2021/09/25 03:41:46;;;;;;;0.00;0.00;;;11.80;91.60;;;;;;5035906;28;20114;-76
2021/09/25 03:44:11;;;;;;;0.00;0.00;;;11.90;91.40;;;;;;5037188;28;20025;-76
2021/09/25 03:46:37;;;;;;;0.00;0.00;;;11.90;91.30;;;;;;5037102;28;20120;-76
2021/09/25 03:49:03;;;;;;;0.00;0.00;;;11.90;91.20;;;;;;5036923;28;20462;-76
2021/09/25 03:51:29;;;;;;;0.00;0.00;;;11.90;91.10;;;;;;5037089;28;20026;-76
2021/09/25 03:53:55;;;;;;;0.00;0.00;;;11.90;91.00;;;;;;5035549;28;20363;-76
2021/09/25 03:56:21;;;;;;;0.00;0.00;;;12.00;90.90;;;;;;5037066;28;20079;-76
2021/09/25 03:58:47;;;;;;;0.00;0.00;;;12.00;90.80;;;;;;5036416;28;20076;-77
2021/09/25 04:01:13;;;;;;;0.00;0.00;;;12.00;90.60;;;;;;5036762;28;20025;-77
2021/09/25 04:03:39;;;;;;;0.00;0.00;;;12.00;90.40;;;;;;5036408;28;20090;-77
2021/09/25 04:06:05;;;;;;;0.00;0.00;;;12.00;90.30;;;;;;5036752;28;20389;-76
2021/09/25 04:08:34;;;;;;;0.00;0.00;;;12.00;90.20;;;;;;5036305;28;20036;-76
2021/09/25 04:11:00;;;;;;;0.00;0.00;;;12.10;90.10;;;;;;5035370;28;20458;-78
2021/09/25 04:13:26;;;;;;;0.00;0.00;;;12.10;90.00;;;;;;5036634;28;20040;-78
2021/09/25 04:15:51;;;;;;;0.00;0.00;;;12.10;89.70;;;;;;5036256;28;20076;-77
2021/09/25 04:18:17;;;;;;;0.00;0.00;;;12.10;89.40;;;;;;5036383;28;20029;-76
2021/09/25 04:20:43;;;;;;;0.00;0.00;;;12.20;89.10;;;;;;5036404;28;20025;-76
2021/09/25 04:23:09;;;;;;;0.00;0.00;;;12.20;89.00;;;;;;5036753;28;20093;-76
2021/09/25 04:25:34;;;;;;;0.00;0.00;;;12.20;88.80;;;;;;5051999;28;20108;-75
2021/09/25 04:28:05;;;;;;;0.00;0.00;;;12.20;88.40;;;;;;5036183;28;20028;-77
2021/09/25 04:30:33;;;;;;;0.00;0.00;;;12.20;88.00;;;;;;5036690;28;20117;-77
2021/09/25 04:32:58;;;;;;;0.00;0.00;;;12.20;87.90;;;;;;5036509;28;20025;-75
2021/09/25 04:35:24;;;;;;;0.00;0.00;;;12.20;87.70;;;;;;5035999;28;20052;-76
2021/09/25 04:37:50;;;;;;;0.00;0.00;;;12.30;87.70;;;;;;5034560;28;20021;-77
2021/09/25 04:40:16;;;;;;;0.00;0.00;;;12.30;87.70;;;;;;5034808;28;20026;-75
2021/09/25 04:42:42;;;;;;;0.00;0.00;;;12.40;87.50;;;;;;5036627;28;20029;-75
2021/09/25 04:45:12;;;;;;;0.00;0.00;;;12.40;87.30;;;;;;5034636;28;20075;-75
2021/09/25 04:47:39;;;;;;;0.00;0.00;;;12.40;87.10;;;;;;5036143;28;20033;-78
2021/09/25 04:50:06;;;;;;;0.00;0.00;;;12.50;87.10;;;;;;5035559;28;20017;-77
2021/09/25 04:52:31;;;;;;;0.00;0.00;;;12.50;86.90;;;;;;5035820;28;20060;-77
2021/09/25 04:54:57;;;;;;;0.00;0.00;;;12.60;86.50;;;;;;5035783;28;20438;-77
2021/09/25 04:57:23;;;;;;;0.00;0.00;;;12.60;86.10;;;;;;5034358;28;20429;-77
2021/09/25 04:59:48;;;;;;;0.00;0.00;;;12.60;85.80;;;;;;5035418;28;20127;-77
2021/09/25 05:02:14;;;;;;;0.00;0.00;;;12.60;85.70;;;;;;5034280;28;20377;-77
2021/09/25 05:04:40;;;;;;;0.00;0.00;;;12.70;85.60;;;;;;5035410;28;20029;-77
2021/09/25 05:07:06;;;;;;;0.00;0.00;;;12.70;85.40;;;;;;5035355;28;20120;-77
2021/09/25 05:09:31;;;;;;;0.00;0.00;;;12.70;85.50;;;;;;5035266;28;20420;-77
2021/09/25 05:11:58;;;;;;;0.00;0.00;;;12.80;85.50;;;;;;5035438;28;20446;-77
2021/09/25 05:14:23;;;;;;;0.00;0.00;;;12.80;85.00;;;;;;5035465;28;20053;-77
2021/09/25 05:16:49;;;;;;;0.00;0.00;;;12.90;84.80;;;;;;5035208;28;20036;-77
2021/09/25 05:19:15;;;;;;;0.00;0.00;;;12.90;84.80;;;;;;5035102;28;20025;-76
2021/09/25 05:21:41;;;;;;;0.00;0.00;;;13.00;84.70;;;;;;5034843;28;20533;-78
2021/09/25 05:24:07;;;;;;;0.00;0.00;;;13.10;84.80;;;;;;5034667;28;20134;-77
2021/09/25 05:26:35;;;;;;;0.00;0.00;;;13.20;84.30;;;;;;5033875;28;20481;-77
2021/09/25 05:29:02;;;;;;;0.00;0.00;;;13.20;83.90;;;;;;5033750;28;20359;-76
2021/09/25 05:31:28;;;;;;;0.00;0.00;;;13.30;83.60;;;;;;5035011;28;20105;-77
2021/09/25 05:33:53;;;;;;;0.00;0.00;;;13.40;83.30;;;;;;5034522;28;20025;-76
2021/09/25 05:36:21;;;;;;;0.00;0.00;;;13.50;82.90;;;;;;5034569;28;20040;-78
2021/09/25 05:38:46;;;;;;;0.00;0.00;;;13.60;82.70;;;;;;5034629;28;20021;-78
2021/09/25 05:41:12;;;;;;;0.00;0.00;;;13.70;82.40;;;;;;5029325;28;20026;-77
2021/09/25 05:43:55;;;;;;;0.00;0.00;;;13.70;81.70;;;;;;5022960;28;20463;-77
2021/09/25 05:46:26;;;;;;;0.00;0.00;;;13.80;81.40;;;;;;5025631;28;20045;-78
2021/09/25 05:48:52;;;;;;;0.00;0.00;;;13.80;81.30;;;;;;5024252;28;20028;-77
2021/09/25 05:51:21;;;;;;;0.00;0.00;;;13.80;81.10;;;;;;5024131;28;20021;-78
2021/09/25 05:53:47;;;;;;;0.00;0.00;;;13.80;80.80;;;;;;5014877;28;20030;-77
2021/09/25 05:56:13;;;;;;;0.00;0.00;;;13.90;80.80;;;;;;5013650;28;20458;-78
2021/09/25 05:58:39;;;;;;;0.00;0.00;;;13.90;80.60;;;;;;5014470;28;20030;-76
2021/09/25 06:01:05;;;;;;;0.00;0.00;;;14.00;80.40;;;;;;5010897;28;20405;-77
2021/09/25 06:03:30;;;;;;;0.00;0.00;;;14.20;80.20;;;;;;5034101;28;20060;-77
2021/09/25 06:05:56;;;;;;;0.00;0.00;;;14.30;79.90;;;;;;5034210;28;20041;-77
2021/09/25 06:08:22;;;;;;;0.00;0.00;;;14.50;79.50;;;;;;5034252;28;20363;-76
2021/09/25 06:10:47;;;;;;;0.00;0.00;;;14.60;78.80;;;;;;5034479;28;20057;-76
2021/09/25 06:13:13;;;;;;;0.00;0.00;;;14.70;78.30;;;;;;5034309;28;20432;-77
2021/09/25 06:15:39;;;;;;;0.00;0.00;;;14.80;77.70;;;;;;5034226;28;20026;-77
2021/09/25 06:18:05;;;;;;;0.00;0.00;;;14.80;77.50;;;;;;5049380;28;20025;-76
2021/09/25 06:20:31;;;;;;;0.00;0.00;;;14.70;77.00;;;;;;5033823;28;20044;-77
2021/09/25 06:22:57;;;;;;;0.00;0.00;;;14.70;76.90;;;;;;5033774;28;20025;-76
2021/09/25 06:25:23;;;;;;;0.00;0.00;;;14.60;76.80;;;;;;5033544;28;20049;-77
2021/09/25 06:27:50;;;;;;;0.00;0.00;;;14.60;77.10;;;;;;5033544;28;20141;-77
2021/09/25 06:30:16;;;;;;;0.00;0.00;;;14.60;77.20;;;;;;5033794;28;20100;-77
2021/09/25 06:32:42;;;;;;;0.00;0.00;;;14.70;77.30;;;;;;5016381;28;20492;-77
2021/09/25 06:35:10;;;;;;;0.00;0.00;;;14.90;77.10;;;;;;5033901;28;20069;-77
2021/09/25 06:37:36;;;;;;;0.00;0.00;;;15.00;76.50;;;;;;5032187;28;20386;-78
2021/09/25 06:40:03;;;;;;;0.00;0.00;;;15.10;76.20;;;;;;5053591;28;20025;-77
2021/09/25 06:42:38;;;;;;;0.00;0.00;;;15.30;75.90;;;;;;5048947;28;20022;-76
2021/09/25 06:45:10;;;;;;;0.00;0.00;;;15.50;75.30;;;;;;5039130;28;20092;-77
2021/09/25 06:47:36;;;;;;;0.00;0.00;;;15.70;75.00;;;;;;5033495;28;20382;-80
2021/09/25 06:50:09;;;;;;;0.00;0.00;;;15.90;74.20;;;;;;5033170;28;20022;-78
2021/09/25 06:52:36;;;;;;;0.00;0.00;;;16.00;72.90;;;;;;5033231;28;20466;-80
2021/09/25 06:55:03;;;;;;;0.00;0.00;;;16.00;73.10;;;;;;5033404;28;20037;-77
2021/09/25 06:57:30;;;;;;;0.00;0.00;;;16.10;72.80;;;;;;5033569;28;20017;-78
2021/09/25 06:59:56;;;;;;;0.00;0.00;;;16.20;72.00;;;;;;5031578;28;20021;-78
2021/09/25 07:02:21;;;;;;;0.00;0.00;;;16.10;71.60;;;;;;5033050;28;20037;-78
2021/09/25 07:04:47;;;;;;;0.00;0.00;;;16.00;72.00;;;;;;5032162;28;20034;-79
2021/09/25 07:07:13;;;;;;;0.00;0.00;;;16.00;71.80;;;;;;5032298;28;20029;-78
2021/09/25 07:09:41;;;;;;;0.00;0.00;;;16.00;71.80;;;;;;5033461;28;20033;-78
2021/09/25 07:12:08;;;;;;;0.00;0.00;;;16.00;71.40;;;;;;5033349;28;20025;-79
2021/09/25 07:14:35;;;;;;;0.00;0.00;;;15.90;71.40;;;;;;5032767;28;20030;-77
2021/09/25 07:17:01;;;;;;;0.00;0.00;;;15.90;71.70;;;;;;5032073;28;20029;-78
2021/09/25 07:19:26;;;;;;;0.00;0.00;;;15.90;71.70;;;;;;5033141;28;20026;-77
2021/09/25 07:21:52;;;;;;;0.00;0.00;;;16.00;71.70;;;;;;5032026;28;20021;-77
2021/09/25 07:24:18;;;;;;;0.00;0.00;;;16.10;71.30;;;;;;5033431;28;20052;-77
2021/09/25 07:26:44;;;;;;;0.00;0.00;;;16.10;71.00;;;;;;5029992;28;20057;-78
2021/09/25 07:29:10;;;;;;;0.00;0.00;;;16.20;71.00;;;;;;5021040;28;20101;-78
2021/09/25 07:31:36;;;;;;;0.00;0.00;;;16.40;70.70;;;;;;5023746;28;20137;-76
2021/09/25 07:34:02;;;;;;;0.00;0.00;;;16.50;69.90;;;;;;5020838;28;20033;-78
2021/09/25 07:36:28;;;;;;;0.00;0.00;;;16.60;69.40;;;;;;5020737;28;20033;-77
2021/09/25 07:38:56;;;;;;;0.00;0.00;;;16.70;69.40;;;;;;5020985;28;20386;-79
2021/09/25 07:41:23;;;;;;;0.00;0.00;;;16.80;69.20;;;;;;5028949;28;20117;-78
2021/09/25 07:43:49;;;;;;;0.00;0.00;;;17.00;68.90;;;;;;5033138;28;20030;-79
2021/09/25 07:46:15;;;;;;;0.00;0.00;;;17.00;68.10;;;;;;5032847;28;20025;-78
2021/09/25 07:48:41;;;;;;;0.00;0.00;;;17.00;67.70;;;;;;5033148;28;20079;-78
2021/09/25 07:51:07;;;;;;;0.00;0.00;;;16.90;67.60;;;;;;5031698;28;20037;-77
2021/09/25 07:53:33;;;;;;;0.00;0.00;;;17.00;67.40;;;;;;5033242;28;20110;-77
2021/09/25 07:55:59;;;;;;;0.00;0.00;;;17.10;67.00;;;;;;5033190;28;20405;-77
2021/09/25 07:58:24;;;;;;;0.00;0.00;;;17.10;66.70;;;;;;5033604;28;20065;-77
2021/09/25 08:00:51;;;;;;;0.00;0.00;;;17.10;66.50;;;;;;5033171;28;20026;-77
2021/09/25 08:03:18;;;;;;;0.00;0.00;;;17.10;66.30;;;;;;5031773;28;20083;-77
2021/09/25 08:05:44;;;;;;;0.00;0.00;;;17.00;66.10;;;;;;5032660;28;20087;-77
2021/09/25 08:08:09;;;;;;;0.00;0.00;;;17.10;66.30;;;;;;5033421;28;20037;-77
2021/09/25 08:10:35;;;;;;;0.00;0.00;;;17.20;66.00;;;;;;5032853;28;20109;-77
2021/09/25 08:13:02;;;;;;;0.00;0.00;;;17.20;65.80;;;;;;5035249;28;20033;-77
2021/09/25 08:15:27;;;;;;;0.00;0.00;;;17.30;65.90;;;;;;5036734;28;20041;-77
2021/09/25 08:17:53;;;;;;;0.00;0.00;;;17.40;65.40;;;;;;5039749;28;20385;-77
2021/09/25 08:20:21;;;;;;;0.00;0.00;;;17.40;65.00;;;;;;5033264;28;20025;-77
2021/09/25 08:22:47;;;;;;;0.00;0.00;;;17.20;64.70;;;;;;5027123;28;20029;-77
2021/09/25 08:25:15;;;;;;;0.00;0.00;;;17.20;64.90;;;;;;5036478;28;20090;-77
2021/09/25 08:27:44;;;;;;;0.00;0.00;;;17.20;65.40;;;;;;5028098;28;20029;-77
2021/09/25 08:30:12;;;;;;;0.00;0.00;;;17.20;65.30;;;;;;5027665;28;20018;-77
2021/09/25 08:32:38;;;;;;;0.00;0.00;;;17.20;65.50;;;;;;5025349;28;20033;-78
2021/09/25 08:35:07;;;;;;;0.00;0.00;;;17.40;65.30;;;;;;5025506;28;20028;-78
2021/09/25 08:37:36;;;;;;;0.00;0.00;;;17.50;65.20;;;;;;5023210;28;20029;-79
2021/09/25 08:40:06;;;;;;;0.00;0.00;;;17.60;64.90;;;;;;5026453;28;20037;-79
2021/09/25 08:42:32;;;;;;;0.00;0.00;;;17.60;64.50;;;;;;5026409;28;20444;-78
2021/09/25 08:44:58;;;;;;;0.00;0.00;;;17.50;65.00;;;;;;5015992;28;20113;-79
2021/09/25 08:47:23;;;;;;;0.00;0.00;;;17.50;64.80;;;;;;5016073;28;20073;-78
2021/09/25 08:49:49;;;;;;;0.00;0.00;;;17.50;64.50;;;;;;5034643;28;20108;-82
2021/09/25 08:52:16;;;;;;;0.00;0.00;;;17.50;64.80;;;;;;5035414;28;20028;-78
2021/09/25 08:54:43;;;;;;;0.00;0.00;;;17.40;64.80;;;;;;5035846;28;20053;-79
2021/09/25 08:57:09;;;;;;;0.00;0.00;;;17.50;65.10;;;;;;5035305;28;20033;-79
2021/09/25 08:59:35;;;;;;;0.00;0.00;;;17.60;65.10;;;;;;5027403;28;20026;-78
2021/09/25 09:02:20;;;;;;;0.00;0.00;;;18.10;65.30;;;;;;5014245;28;20481;-78
2021/09/25 09:04:49;;;;;;;0.00;0.00;;;19.20;63.40;;;;;;5016340;28;20109;-79
2021/09/25 09:07:19;;;;;;;0.00;0.00;;;20.20;61.70;;;;;;5014545;28;20041;-79
2021/09/25 09:09:47;;;;;;;0.00;0.00;;;21.00;59.00;;;;;;5015824;28;20042;-79
2021/09/25 09:12:13;;;;;;;0.00;0.00;;;21.70;57.70;;;;;;5015511;28;20072;-78
2021/09/25 09:14:46;;;;;;;0.00;0.00;;;22.10;56.00;;;;;;5015705;28;20450;-78
2021/09/25 09:17:17;;;;;;;0.00;0.00;;;21.80;54.00;;;;;;5015224;28;20030;-78
2021/09/25 09:19:43;;;;;;;0.00;0.00;;;21.20;54.70;;;;;;5015177;28;20153;-78
2021/09/25 09:22:15;;;;;;;0.00;0.00;;;20.80;55.30;;;;;;5013010;28;20522;-78
2021/09/25 09:24:47;;;;;;;0.00;0.00;;;20.80;55.60;;;;;;5013646;28;20038;-77
2021/09/25 09:27:16;;;;;;;0.00;0.00;;;21.20;55.00;;;;;;5014621;28;20037;-77
2021/09/25 09:29:42;;;;;;;0.00;0.00;;;21.20;54.40;;;;;;5031282;28;20061;-78
2021/09/25 09:32:11;;;;;;;0.00;0.00;;;20.90;54.80;;;;;;5034611;28;20088;-77
2021/09/25 09:34:38;;;;;;;0.00;0.00;;;20.60;55.20;;;;;;5034948;28;20025;-77
2021/09/25 09:37:19;;;;;;;0.00;0.00;;;20.60;55.90;;;;;;5034954;28;20033;-77
2021/09/25 09:39:59;;;;;;;0.00;0.00;;;20.90;55.60;;;;;;5034885;28;20026;-77
2021/09/25 09:42:52;;;;;;;0.00;0.00;;;21.10;54.70;;;;;;5034364;28;20029;-76
2021/09/25 09:45:31;;;;;;;0.00;0.00;;;21.00;54.30;;;;;;5034719;28;20100;-76
2021/09/25 09:47:59;;;;;;;0.00;0.00;;;20.60;54.90;;;;;;5034928;28;20037;-77
2021/09/25 09:50:28;;;;;;;0.00;0.00;;;20.20;55.40;;;;;;5033440;28;20124;-77
2021/09/25 09:52:53;;;;;;;0.00;0.00;;;19.90;56.10;;;;;;5034195;28;20025;-78
2021/09/25 09:55:23;;;;;;;0.00;0.00;;;19.70;56.70;;;;;;5034503;28;20030;-77
2021/09/25 09:58:04;;;;;;;0.00;0.00;;;19.60;56.90;;;;;;5034598;28;20381;-76
2021/09/25 10:00:29;;;;;;;0.00;0.00;;;19.50;57.30;;;;;;5034493;28;20061;-77
2021/09/25 10:02:56;;;;;;;0.00;0.00;;;19.50;57.30;;;;;;5029109;28;20425;-76
2021/09/25 10:05:21;;;;;;;0.00;0.00;;;19.20;57.20;;;;;;5030758;28;20033;-77
2021/09/25 10:07:47;;;;;;;0.00;0.00;;;19.10;57.80;;;;;;5021667;28;20359;-78
2021/09/25 10:10:13;;;;;;;0.00;0.00;;;19.10;57.80;;;;;;5025517;28;20744;-77
2021/09/25 10:12:40;;;;;;;0.00;0.00;;;19.10;57.70;;;;;;5024429;28;20026;-76
2021/09/25 10:15:06;;;;;;;0.00;0.00;;;19.20;57.70;;;;;;5024898;28;20505;-77
2021/09/25 10:17:33;;;;;;;0.00;0.00;;;19.40;58.00;;;;;;5023355;28;20585;-77
2021/09/25 10:20:00;;;;;;;0.00;0.00;;;19.60;57.90;;;;;;5024124;28;20029;-77
2021/09/25 10:22:30;;;;;;;0.00;0.00;;;19.70;57.40;;;;;;5022494;28;20022;-78
2021/09/25 10:25:00;;;;;;;0.00;0.00;;;19.50;57.10;;;;;;5025205;28;20038;-79
2021/09/25 10:27:37;;;;;;;0.00;0.00;;;19.50;57.70;;;;;;5015964;28;20037;-78
2021/09/25 10:30:07;;;;;;;0.00;0.00;;;19.40;57.30;;;;;;5012914;28;20052;-78
2021/09/25 10:32:41;;;;;;;0.00;0.00;;;19.30;57.80;;;;;;5019130;28;20025;-77
2021/09/25 10:35:32;;;;;;;0.00;0.00;;;19.10;58.00;;;;;;5027096;28;20022;-78
2021/09/25 10:38:04;;;;;;;0.00;0.00;;;18.90;58.40;;;;;;5023462;28;20037;-78
2021/09/25 10:40:40;;;;;;;0.00;0.00;;;18.70;58.90;;;;;;5022287;28;20057;-79
2021/09/25 10:43:20;;;;;;;0.00;0.00;;;18.60;59.40;;;;;;5033486;28;20132;-78
2021/09/25 10:45:55;;;;;;;0.00;0.00;;;18.50;59.30;;;;;;5033456;28;20072;-76
2021/09/25 10:48:24;;;;;;;0.00;0.00;;;18.30;59.70;;;;;;5032316;28;20034;-77
2021/09/25 10:50:54;;;;;;;0.00;0.00;;;18.20;60.20;;;;;;5021519;28;20030;-78
2021/09/25 10:53:23;;;;;;;0.00;0.00;;;18.10;60.60;;;;;;5023454;28;20412;-77
2021/09/25 10:55:51;;;;;;;0.00;0.00;;;18.00;60.60;;;;;;5020405;28;20033;-77
2021/09/25 10:58:27;;;;;;;0.00;0.00;;;18.10;60.80;;;;;;5031059;28;20029;-77
2021/09/25 11:00:56;;;;;;;0.00;0.00;;;18.20;60.70;;;;;;5020774;28;20018;-76
2021/09/25 11:06:27;;;;;;;0.00;0.00;;;19.00;59.70;;;;;;5023178;28;20065;-78
2021/09/25 11:09:08;;;;;;;0.00;0.00;;;19.40;59.10;;;;;;5026830;28;20495;-79
2021/09/25 11:11:51;;;;;;;0.00;0.00;;;20.10;57.50;;;;;;5026671;28;20084;-77
2021/09/25 11:14:30;;;;;;;0.00;0.00;;;20.50;56.60;;;;;;5022835;28;20048;-79
2021/09/25 11:17:24;;;;;;;0.00;0.00;;;20.80;56.10;;;;;;5026766;28;20022;-79
2021/09/25 11:20:04;;;;;;;0.00;0.00;;;20.90;55.30;;;;;;5023159;28;20030;-76
2021/09/25 11:22:37;;;;;;;0.00;0.00;;;20.80;54.90;;;;;;5026038;28;20485;-77
2021/09/25 11:25:14;;;;;;;0.00;0.00;;;20.60;54.90;;;;;;5020824;28;20040;-78
2021/09/25 11:27:46;;;;;;;0.00;0.00;;;20.30;55.20;;;;;;5023148;28;20080;-78
2021/09/25 11:30:17;;;;;;;0.00;0.00;;;20.10;55.40;;;;;;5023869;28;20044;-78
2021/09/25 11:32:47;;;;;;;0.00;0.00;;;20.00;55.90;;;;;;5023764;28;20060;-78
2021/09/25 11:35:22;;;;;;;0.00;0.00;;;19.80;56.20;;;;;;5019401;28;20026;-77
2021/09/25 11:37:58;;;;;;;0.00;0.00;;;19.80;56.40;;;;;;5021540;28;20062;-79
2021/09/25 11:40:29;;;;;;;0.00;0.00;;;19.60;56.30;;;;;;5020100;28;20053;-78
2021/09/25 11:43:06;;;;;;;0.00;0.00;;;19.30;56.60;;;;;;5024076;28;20033;-78
2021/09/25 11:45:38;;;;;;;0.00;0.00;;;19.30;56.90;;;;;;5021067;28;20030;-81
2021/09/25 11:48:05;;;;;;;0.00;0.00;;;19.40;57.20;;;;;;5023357;28;20029;-78
2021/09/25 11:50:34;;;;;;;0.00;0.00;;;19.70;56.50;;;;;;5025456;28;20426;-76
2021/09/25 11:53:07;;;;;;;0.00;0.00;;;20.00;56.10;;;;;;5023407;28;20049;-78
2021/09/25 11:55:34;;;;;;;0.00;0.00;;;21.00;55.70;;;;;;5028021;28;20112;-79
2021/09/25 11:58:06;;;;;;;0.00;0.00;;;22.10;53.90;;;;;;5023462;28;20040;-78
2021/09/25 12:00:41;;;;;;;0.00;0.00;;;23.00;52.40;;;;;;5027153;28;20025;-77
2021/09/25 12:03:09;;;;;;;0.00;0.00;;;23.70;50.60;;;;;;5026042;28;20022;-77
2021/09/25 12:05:56;;;;;;;0.00;0.00;;;23.80;49.70;;;;;;5025466;28;20040;-78
2021/09/25 12:08:26;;;;;;;0.00;0.00;;;23.40;49.20;;;;;;5026877;28;20032;-77
2021/09/25 12:11:04;;;;;;;0.00;0.00;;;22.90;49.60;;;;;;5023045;28;20026;-79
2021/09/25 12:13:38;;;;;;;0.00;0.00;;;22.40;50.40;;;;;;5025753;28;20049;-78
2021/09/25 12:16:13;;;;;;;;;;;21.90;51.10;;;;;;5026551;28;20470;-78
2021/09/25 12:18:40;;;;;;;0.00;0.00;;;21.50;52.10;;;;;;5026849;28;19916;-77
2021/09/25 12:21:09;;;;;;;0.00;0.00;;;21.10;52.70;;;;;;5027793;28;20064;-78
2021/09/25 12:23:36;;;;;;;0.00;0.00;;;20.70;53.50;;;;;;5024402;28;20467;-79
2021/09/25 12:26:27;;;;;;;0.00;0.00;;;20.50;54.10;;;;;;5023146;28;20518;-79
2021/09/25 12:28:54;;;;;;;0.00;0.00;;;20.30;54.90;;;;;;5025364;28;20490;-79
2021/09/25 12:31:36;;;;;;;0.00;0.00;;;20.30;55.40;;;;;;5025694;28;20060;-78
2021/09/25 12:34:16;;;;;;;0.00;0.00;;;20.40;55.10;;;;;;5024946;28;20050;-77
2021/09/25 12:36:46;;;;;;;0.00;0.00;;;20.60;55.10;;;;;;5023412;28;20448;-77
2021/09/25 12:39:29;;;;;;;0.00;0.00;;;20.80;54.80;;;;;;5022914;28;20393;-78
2021/09/25 12:42:05;;;;;;;0.00;0.00;;;21.00;55.20;;;;;;5022449;28;20049;-78
2021/09/25 12:44:35;;;;;;;0.00;0.00;;;21.70;53.50;;;;;;5026416;28;20381;-78
2021/09/25 12:47:03;;;;;;;0.00;0.00;;;21.80;52.00;;;;;;5024172;28;20025;-78
2021/09/25 12:49:36;;;;;;;0.00;0.00;;;21.70;51.70;;;;;;5025353;28;20537;-78
2021/09/25 12:52:08;;;;;;;0.00;0.00;;;21.30;51.70;;;;;;5030375;28;20037;-78
2021/09/25 12:54:37;;;;;;;0.00;0.00;;;20.90;51.70;;;;;;5035542;28;20408;-77
2021/09/25 12:57:09;;;;;;;0.00;0.00;;;20.60;52.70;;;;;;5026715;28;20474;-79